This is the latest recevied weather packets stored in our database for station/object SV9TNF-2. If no packets are shown the sender has not sent any weather packets the latest 10 day(s).
| Time | Temp. | Humidity | Pressure | Rain* | Wind** | Luminosity | Snow |
|---|---|---|---|---|---|---|---|
| 1777771564 | 14.44° C | 55% | 1020 hPa | 0 mm | 23.69 m/s, 57° | - | - |
| 1777771264 | 14.44° C | 57% | 1020 hPa | 0 mm | 9.83 m/s, 313° | - | - |
| 1777770964 | 14.44° C | 58% | 1020 hPa | 0 mm | 10.73 m/s, 340° | - | - |
| 1777770664 | 14.44° C | 57% | 1020 hPa | 0 mm | 15.2 m/s, 95° | - | - |
| 1777770364 | 14.44° C | 52% | 1020 hPa | 0 mm | 11.18 m/s, 34° | - | - |
| 1777770064 | 14.44° C | 52% | 1020 hPa | 0 mm | 15.65 m/s, 61° | - | - |
| 1777769763 | 14.44° C | 56% | 1020 hPa | 0 mm | 9.83 m/s, 91° | - | - |
| 1777769463 | 14.44° C | 57% | 1020 hPa | 0 mm | 23.69 m/s, 9° | - | - |
| 1777769164 | 14.44° C | 58% | 1020 hPa | 0 mm | 9.83 m/s, 108° | - | - |
| 1777768863 | 14.44° C | 55% | 1020 hPa | 0 mm | 20.56 m/s, 23° | - | - |
| 1777768563 | 14.44° C | 57% | 1019.6 hPa | 0 mm | 8.49 m/s, 31° | - | - |
| 1777768263 | 13.89° C | 60% | 1019.6 hPa | 0 mm | 14.31 m/s, 61° | - | - |
| 1777767963 | 13.89° C | 59% | 1019.6 hPa | 0 mm | 11.18 m/s, 170° | - | - |
| 1777767663 | 13.89° C | 60% | 1020 hPa | 0 mm | 12.07 m/s, 90° | - | - |
| 1777767363 | 13.89° C | 61% | 1020 hPa | 2.54 mm | 16.99 m/s, 0° | - | - |
| 1777767063 | 13.33° C | 66% | 1019.6 hPa | 3.81 mm | 33.98 m/s, 353° | - | - |
| 1777766763 | 13.33° C | 64% | 1019.6 hPa | 1.27 mm | 21.46 m/s, 7° | - | - |
| 1777766462 | 13.89° C | 66% | 1019.6 hPa | 0 mm | 19.67 m/s, 25° | - | - |
| 1777766162 | 12.78° C | 68% | 1020 hPa | 0 mm | 4.92 m/s, 4° | - | - |
| 1777765862 | 11.67° C | 81% | 1020 hPa | 0 mm | 6.26 m/s, 29° | - | - |
| 1777765562 | 13.33° C | 66% | 1020 hPa | 0 mm | 8.05 m/s, 90° | - | - |
| 1777765262 | 13.33° C | 61% | 1020 hPa | 0 mm | 10.28 m/s, 79° | - | - |
| 1777764962 | 13.33° C | 60% | 1020 hPa | 0 mm | 19.67 m/s, 92° | - | - |
| 1777764662 | 13.89° C | 65% | 1020 hPa | 0 mm | 22.35 m/s, 290° | - | - |
| 1777764362 | 13.89° C | 63% | 1020 hPa | 0 mm | 20.56 m/s, 344° | - | - |
* Rain latest hour (hover to see other rain measurements)
** Current wind speed in m/s (hover to see current wind gust speed)